sensor_id;sensor_type;location;lat;lon;timestamp;P1;durP1;ratioP1;P2;durP2;ratioP2
27802;SDS011;15182;48.174;11.562;2024-01-10T00:02:18;34.63;;;18.33;;
27802;SDS011;15182;48.174;11.562;2024-01-10T00:04:46;38.83;;;18.40;;
27802;SDS011;15182;48.174;11.562;2024-01-10T00:07:13;34.77;;;17.87;;
27802;SDS011;15182;48.174;11.562;2024-01-10T00:09:43;34.13;;;17.97;;
27802;SDS011;15182;48.174;11.562;2024-01-10T00:12:11;34.43;;;17.70;;
27802;SDS011;15182;48.174;11.562;2024-01-10T00:14:39;30.57;;;18.07;;
27802;SDS011;15182;48.174;11.562;2024-01-10T00:17:07;32.63;;;17.57;;
27802;SDS011;15182;48.174;11.562;2024-01-10T00:19:35;31.70;;;17.67;;
27802;SDS011;15182;48.174;11.562;2024-01-10T00:22:03;29.00;;;16.40;;
27802;SDS011;15182;48.174;11.562;2024-01-10T00:24:31;30.97;;;16.50;;
27802;SDS011;15182;48.174;11.562;2024-01-10T00:27:00;37.10;;;18.53;;
27802;SDS011;15182;48.174;11.562;2024-01-10T00:29:28;31.23;;;17.00;;
27802;SDS011;15182;48.174;11.562;2024-01-10T00:31:56;27.13;;;16.33;;
27802;SDS011;15182;48.174;11.562;2024-01-10T00:34:25;31.83;;;16.83;;
27802;SDS011;15182;48.174;11.562;2024-01-10T00:36:53;31.13;;;17.47;;
27802;SDS011;15182;48.174;11.562;2024-01-10T00:39:21;37.77;;;18.53;;
27802;SDS011;15182;48.174;11.562;2024-01-10T00:41:48;37.83;;;18.57;;
27802;SDS011;15182;48.174;11.562;2024-01-10T00:44:18;35.40;;;18.37;;
27802;SDS011;15182;48.174;11.562;2024-01-10T00:46:45;41.63;;;18.53;;
27802;SDS011;15182;48.174;11.562;2024-01-10T00:49:13;37.27;;;17.77;;
27802;SDS011;15182;48.174;11.562;2024-01-10T00:51:41;36.27;;;18.70;;
27802;SDS011;15182;48.174;11.562;2024-01-10T00:54:09;40.93;;;18.57;;
27802;SDS011;15182;48.174;11.562;2024-01-10T00:56:37;37.80;;;18.77;;
27802;SDS011;15182;48.174;11.562;2024-01-10T00:59:04;37.30;;;18.47;;
27802;SDS011;15182;48.174;11.562;2024-01-10T01:01:34;37.47;;;19.37;;
27802;SDS011;15182;48.174;11.562;2024-01-10T01:04:02;35.13;;;19.37;;
27802;SDS011;15182;48.174;11.562;2024-01-10T01:06:30;42.77;;;19.30;;
27802;SDS011;15182;48.174;11.562;2024-01-10T01:08:58;39.93;;;18.93;;
27802;SDS011;15182;48.174;11.562;2024-01-10T01:11:26;36.50;;;19.37;;
27802;SDS011;15182;48.174;11.562;2024-01-10T01:13:54;36.03;;;18.93;;
27802;SDS011;15182;48.174;11.562;2024-01-10T01:16:22;36.50;;;19.00;;
27802;SDS011;15182;48.174;11.562;2024-01-10T01:18:51;38.63;;;19.63;;
27802;SDS011;15182;48.174;11.562;2024-01-10T01:21:19;39.27;;;18.80;;
27802;SDS011;15182;48.174;11.562;2024-01-10T01:23:46;43.20;;;19.73;;
27802;SDS011;15182;48.174;11.562;2024-01-10T01:26:14;43.47;;;19.20;;
27802;SDS011;15182;48.174;11.562;2024-01-10T01:28:42;40.60;;;18.27;;
27802;SDS011;15182;48.174;11.562;2024-01-10T01:31:10;39.00;;;19.60;;
27802;SDS011;15182;48.174;11.562;2024-01-10T01:33:38;43.47;;;20.20;;
27802;SDS011;15182;48.174;11.562;2024-01-10T01:36:07;36.87;;;18.30;;
27802;SDS011;15182;48.174;11.562;2024-01-10T01:38:35;39.03;;;19.10;;
27802;SDS011;15182;48.174;11.562;2024-01-10T01:41:03;39.43;;;19.60;;
27802;SDS011;15182;48.174;11.562;2024-01-10T01:43:32;44.17;;;20.80;;
27802;SDS011;15182;48.174;11.562;2024-01-10T01:46:00;41.40;;;19.33;;
27802;SDS011;15182;48.174;11.562;2024-01-10T01:48:30;43.53;;;19.90;;
27802;SDS011;15182;48.174;11.562;2024-01-10T01:51:00;43.77;;;20.03;;
27802;SDS011;15182;48.174;11.562;2024-01-10T01:53:33;37.47;;;19.63;;
27802;SDS011;15182;48.174;11.562;2024-01-10T01:56:02;41.93;;;19.30;;
27802;SDS011;15182;48.174;11.562;2024-01-10T01:58:33;41.20;;;20.07;;
27802;SDS011;15182;48.174;11.562;2024-01-10T02:01:03;45.33;;;18.93;;
27802;SDS011;15182;48.174;11.562;2024-01-10T02:03:32;36.50;;;18.80;;
27802;SDS011;15182;48.174;11.562;2024-01-10T02:06:00;43.57;;;20.03;;
27802;SDS011;15182;48.174;11.562;2024-01-10T02:08:29;41.20;;;19.47;;
27802;SDS011;15182;48.174;11.562;2024-01-10T02:10:59;39.37;;;19.27;;
27802;SDS011;15182;48.174;11.562;2024-01-10T02:13:28;42.60;;;19.83;;
27802;SDS011;15182;48.174;11.562;2024-01-10T02:15:58;40.87;;;19.53;;
27802;SDS011;15182;48.174;11.562;2024-01-10T02:18:26;42.80;;;20.63;;
27802;SDS011;15182;48.174;11.562;2024-01-10T02:20:54;41.50;;;19.23;;
27802;SDS011;15182;48.174;11.562;2024-01-10T02:23:22;45.33;;;20.17;;
27802;SDS011;15182;48.174;11.562;2024-01-10T02:25:51;45.77;;;19.70;;
27802;SDS011;15182;48.174;11.562;2024-01-10T02:28:19;36.37;;;18.10;;
27802;SDS011;15182;48.174;11.562;2024-01-10T02:30:48;43.43;;;19.00;;
27802;SDS011;15182;48.174;11.562;2024-01-10T02:33:17;43.17;;;19.37;;
27802;SDS011;15182;48.174;11.562;2024-01-10T02:35:45;39.67;;;17.83;;
27802;SDS011;15182;48.174;11.562;2024-01-10T02:38:13;38.97;;;18.53;;
27802;SDS011;15182;48.174;11.562;2024-01-10T02:40:41;40.90;;;19.23;;
27802;SDS011;15182;48.174;11.562;2024-01-10T02:43:10;42.50;;;19.40;;
27802;SDS011;15182;48.174;11.562;2024-01-10T02:45:38;34.23;;;17.63;;
27802;SDS011;15182;48.174;11.562;2024-01-10T02:48:06;36.83;;;18.30;;
27802;SDS011;15182;48.174;11.562;2024-01-10T02:50:34;34.80;;;18.30;;
27802;SDS011;15182;48.174;11.562;2024-01-10T02:53:04;39.20;;;18.73;;
27802;SDS011;15182;48.174;11.562;2024-01-10T02:55:31;33.73;;;18.63;;
27802;SDS011;15182;48.174;11.562;2024-01-10T02:57:59;37.73;;;19.27;;
27802;SDS011;15182;48.174;11.562;2024-01-10T03:00:28;37.37;;;18.53;;
27802;SDS011;15182;48.174;11.562;2024-01-10T03:02:56;36.07;;;17.50;;
27802;SDS011;15182;48.174;11.562;2024-01-10T03:05:24;37.47;;;17.47;;
27802;SDS011;15182;48.174;11.562;2024-01-10T03:07:52;39.17;;;17.80;;
27802;SDS011;15182;48.174;11.562;2024-01-10T03:10:20;42.70;;;19.27;;
27802;SDS011;15182;48.174;11.562;2024-01-10T03:12:48;35.57;;;17.87;;
27802;SDS011;15182;48.174;11.562;2024-01-10T03:15:16;42.43;;;19.23;;
27802;SDS011;15182;48.174;11.562;2024-01-10T03:17:45;43.30;;;20.70;;
27802;SDS011;15182;48.174;11.562;2024-01-10T03:20:13;39.17;;;19.07;;
27802;SDS011;15182;48.174;11.562;2024-01-10T03:22:41;37.33;;;19.30;;
27802;SDS011;15182;48.174;11.562;2024-01-10T03:25:09;41.80;;;18.93;;
27802;SDS011;15182;48.174;11.562;2024-01-10T03:27:37;39.87;;;18.27;;
27802;SDS011;15182;48.174;11.562;2024-01-10T03:30:05;34.60;;;17.73;;
27802;SDS011;15182;48.174;11.562;2024-01-10T03:32:35;41.47;;;19.80;;
27802;SDS011;15182;48.174;11.562;2024-01-10T03:35:04;38.57;;;19.13;;
27802;SDS011;15182;48.174;11.562;2024-01-10T03:37:34;38.40;;;19.50;;
27802;SDS011;15182;48.174;11.562;2024-01-10T03:40:02;38.20;;;18.87;;
27802;SDS011;15182;48.174;11.562;2024-01-10T03:42:30;42.73;;;20.60;;
27802;SDS011;15182;48.174;11.562;2024-01-10T03:44:58;37.17;;;18.83;;
27802;SDS011;15182;48.174;11.562;2024-01-10T03:47:26;34.63;;;18.17;;
27802;SDS011;15182;48.174;11.562;2024-01-10T03:49:54;39.23;;;19.07;;
27802;SDS011;15182;48.174;11.562;2024-01-10T03:52:23;46.93;;;19.73;;
27802;SDS011;15182;48.174;11.562;2024-01-10T03:54:51;47.33;;;19.93;;
27802;SDS011;15182;48.174;11.562;2024-01-10T03:57:18;44.90;;;20.90;;
27802;SDS011;15182;48.174;11.562;2024-01-10T03:59:46;42.67;;;19.73;;
27802;SDS011;15182;48.174;11.562;2024-01-10T04:02:14;39.07;;;19.90;;
27802;SDS011;15182;48.174;11.562;2024-01-10T04:04:42;55.40;;;20.57;;
27802;SDS011;15182;48.174;11.562;2024-01-10T04:07:10;49.97;;;21.67;;
27802;SDS011;15182;48.174;11.562;2024-01-10T04:09:39;44.03;;;19.83;;
27802;SDS011;15182;48.174;11.562;2024-01-10T04:12:07;44.17;;;20.93;;
27802;SDS011;15182;48.174;11.562;2024-01-10T04:14:35;45.87;;;21.80;;
27802;SDS011;15182;48.174;11.562;2024-01-10T04:17:03;40.83;;;19.87;;
27802;SDS011;15182;48.174;11.562;2024-01-10T04:19:32;39.87;;;20.33;;
27802;SDS011;15182;48.174;11.562;2024-01-10T04:22:00;44.97;;;21.40;;
27802;SDS011;15182;48.174;11.562;2024-01-10T04:24:28;38.30;;;19.43;;
27802;SDS011;15182;48.174;11.562;2024-01-10T04:26:57;46.43;;;19.30;;
27802;SDS011;15182;48.174;11.562;2024-01-10T04:29:25;42.77;;;19.17;;
27802;SDS011;15182;48.174;11.562;2024-01-10T04:31:53;42.73;;;20.50;;
27802;SDS011;15182;48.174;11.562;2024-01-10T04:34:21;42.87;;;20.43;;
27802;SDS011;15182;48.174;11.562;2024-01-10T04:36:50;36.53;;;19.60;;
27802;SDS011;15182;48.174;11.562;2024-01-10T04:39:18;44.50;;;20.07;;
27802;SDS011;15182;48.174;11.562;2024-01-10T04:41:46;42.27;;;20.03;;
27802;SDS011;15182;48.174;11.562;2024-01-10T04:44:15;41.73;;;19.33;;
27802;SDS011;15182;48.174;11.562;2024-01-10T04:46:43;39.23;;;19.33;;
27802;SDS011;15182;48.174;11.562;2024-01-10T04:49:11;42.27;;;19.20;;
27802;SDS011;15182;48.174;11.562;2024-01-10T04:51:39;41.83;;;18.93;;
27802;SDS011;15182;48.174;11.562;2024-01-10T04:54:07;43.53;;;19.97;;
27802;SDS011;15182;48.174;11.562;2024-01-10T04:56:35;40.70;;;18.90;;
27802;SDS011;15182;48.174;11.562;2024-01-10T04:59:03;46.07;;;20.00;;
27802;SDS011;15182;48.174;11.562;2024-01-10T05:01:32;39.13;;;19.53;;
27802;SDS011;15182;48.174;11.562;2024-01-10T05:04:00;40.33;;;18.77;;
27802;SDS011;15182;48.174;11.562;2024-01-10T05:06:28;39.33;;;18.90;;
27802;SDS011;15182;48.174;11.562;2024-01-10T05:08:56;38.63;;;19.37;;
27802;SDS011;15182;48.174;11.562;2024-01-10T05:11:24;41.90;;;20.13;;
27802;SDS011;15182;48.174;11.562;2024-01-10T05:13:52;42.27;;;20.00;;
27802;SDS011;15182;48.174;11.562;2024-01-10T05:16:20;44.53;;;20.37;;
27802;SDS011;15182;48.174;11.562;2024-01-10T05:18:50;34.87;;;18.77;;
27802;SDS011;15182;48.174;11.562;2024-01-10T05:21:18;41.73;;;19.37;;
27802;SDS011;15182;48.174;11.562;2024-01-10T05:23:46;48.80;;;21.03;;
27802;SDS011;15182;48.174;11.562;2024-01-10T05:26:14;44.17;;;19.80;;
27802;SDS011;15182;48.174;11.562;2024-01-10T05:28:42;40.37;;;19.23;;
27802;SDS011;15182;48.174;11.562;2024-01-10T05:31:10;43.47;;;19.97;;
27802;SDS011;15182;48.174;11.562;2024-01-10T05:33:38;39.73;;;19.13;;
27802;SDS011;15182;48.174;11.562;2024-01-10T05:36:09;37.23;;;18.50;;
27802;SDS011;15182;48.174;11.562;2024-01-10T05:38:38;40.10;;;19.27;;
27802;SDS011;15182;48.174;11.562;2024-01-10T05:41:07;37.87;;;18.90;;
27802;SDS011;15182;48.174;11.562;2024-01-10T05:43:35;42.30;;;19.03;;
27802;SDS011;15182;48.174;11.562;2024-01-10T05:46:02;42.57;;;19.77;;
27802;SDS011;15182;48.174;11.562;2024-01-10T05:48:31;43.73;;;19.03;;
27802;SDS011;15182;48.174;11.562;2024-01-10T05:50:59;40.73;;;18.90;;
27802;SDS011;15182;48.174;11.562;2024-01-10T05:53:30;39.67;;;19.90;;
27802;SDS011;15182;48.174;11.562;2024-01-10T05:55:58;40.73;;;18.13;;
27802;SDS011;15182;48.174;11.562;2024-01-10T05:58:26;42.17;;;19.23;;
27802;SDS011;15182;48.174;11.562;2024-01-10T06:00:54;45.63;;;20.37;;
27802;SDS011;15182;48.174;11.562;2024-01-10T06:03:22;39.73;;;20.30;;
27802;SDS011;15182;48.174;11.562;2024-01-10T06:05:50;43.13;;;19.83;;
27802;SDS011;15182;48.174;11.562;2024-01-10T06:08:18;43.80;;;19.40;;
27802;SDS011;15182;48.174;11.562;2024-01-10T06:10:47;40.00;;;19.40;;
27802;SDS011;15182;48.174;11.562;2024-01-10T06:13:16;38.47;;;18.93;;
27802;SDS011;15182;48.174;11.562;2024-01-10T06:15:44;41.57;;;18.13;;
27802;SDS011;15182;48.174;11.562;2024-01-10T06:18:12;38.17;;;19.20;;
27802;SDS011;15182;48.174;11.562;2024-01-10T06:20:40;36.93;;;18.03;;
27802;SDS011;15182;48.174;11.562;2024-01-10T06:23:08;33.33;;;17.27;;
27802;SDS011;15182;48.174;11.562;2024-01-10T06:25:36;35.50;;;18.87;;
27802;SDS011;15182;48.174;11.562;2024-01-10T06:28:05;44.87;;;20.83;;
27802;SDS011;15182;48.174;11.562;2024-01-10T06:30:33;49.77;;;27.00;;
27802;SDS011;15182;48.174;11.562;2024-01-10T06:33:01;42.67;;;22.90;;
27802;SDS011;15182;48.174;11.562;2024-01-10T06:35:32;41.97;;;20.33;;
27802;SDS011;15182;48.174;11.562;2024-01-10T06:38:00;38.63;;;20.33;;
27802;SDS011;15182;48.174;11.562;2024-01-10T06:40:29;37.17;;;17.83;;
27802;SDS011;15182;48.174;11.562;2024-01-10T06:42:57;34.40;;;18.70;;
27802;SDS011;15182;48.174;11.562;2024-01-10T06:45:26;40.10;;;19.23;;
27802;SDS011;15182;48.174;11.562;2024-01-10T06:47:55;40.63;;;18.93;;
27802;SDS011;15182;48.174;11.562;2024-01-10T06:50:23;39.47;;;17.33;;
27802;SDS011;15182;48.174;11.562;2024-01-10T06:52:51;36.97;;;17.50;;
27802;SDS011;15182;48.174;11.562;2024-01-10T06:55:19;38.00;;;18.37;;
27802;SDS011;15182;48.174;11.562;2024-01-10T06:57:48;41.47;;;18.63;;
27802;SDS011;15182;48.174;11.562;2024-01-10T07:00:17;39.93;;;19.00;;
27802;SDS011;15182;48.174;11.562;2024-01-10T07:02:48;41.10;;;19.20;;
27802;SDS011;15182;48.174;11.562;2024-01-10T07:05:17;40.87;;;17.87;;
27802;SDS011;15182;48.174;11.562;2024-01-10T07:07:45;37.83;;;17.20;;
27802;SDS011;15182;48.174;11.562;2024-01-10T07:10:15;34.57;;;17.83;;
27802;SDS011;15182;48.174;11.562;2024-01-10T07:12:43;37.03;;;17.83;;
27802;SDS011;15182;48.174;11.562;2024-01-10T07:15:11;41.80;;;18.37;;
27802;SDS011;15182;48.174;11.562;2024-01-10T07:17:39;38.53;;;18.23;;
27802;SDS011;15182;48.174;11.562;2024-01-10T07:20:09;44.73;;;20.90;;
27802;SDS011;15182;48.174;11.562;2024-01-10T07:22:38;43.07;;;19.33;;
27802;SDS011;15182;48.174;11.562;2024-01-10T07:25:07;43.17;;;19.63;;
27802;SDS011;15182;48.174;11.562;2024-01-10T07:27:35;44.43;;;19.33;;
27802;SDS011;15182;48.174;11.562;2024-01-10T07:30:04;40.47;;;18.00;;
27802;SDS011;15182;48.174;11.562;2024-01-10T07:32:39;41.07;;;18.97;;
27802;SDS011;15182;48.174;11.562;2024-01-10T07:35:09;43.13;;;19.93;;
27802;SDS011;15182;48.174;11.562;2024-01-10T07:37:38;39.73;;;18.60;;
27802;SDS011;15182;48.174;11.562;2024-01-10T07:40:07;43.80;;;21.17;;
27802;SDS011;15182;48.174;11.562;2024-01-10T07:42:36;45.27;;;19.70;;
27802;SDS011;15182;48.174;11.562;2024-01-10T07:45:05;45.53;;;20.10;;
27802;SDS011;15182;48.174;11.562;2024-01-10T07:47:34;46.07;;;19.57;;
27802;SDS011;15182;48.174;11.562;2024-01-10T07:50:04;42.23;;;19.57;;
27802;SDS011;15182;48.174;11.562;2024-01-10T07:52:34;44.03;;;19.97;;
27802;SDS011;15182;48.174;11.562;2024-01-10T07:55:03;48.87;;;21.67;;
27802;SDS011;15182;48.174;11.562;2024-01-10T07:57:32;43.63;;;19.53;;
27802;SDS011;15182;48.174;11.562;2024-01-10T08:00:01;39.47;;;19.10;;
27802;SDS011;15182;48.174;11.562;2024-01-10T08:02:34;45.53;;;19.40;;
27802;SDS011;15182;48.174;11.562;2024-01-10T08:05:02;50.10;;;21.03;;
27802;SDS011;15182;48.174;11.562;2024-01-10T08:07:35;40.03;;;19.90;;
27802;SDS011;15182;48.174;11.562;2024-01-10T08:10:04;49.13;;;19.63;;
27802;SDS011;15182;48.174;11.562;2024-01-10T08:12:32;46.67;;;19.73;;
27802;SDS011;15182;48.174;11.562;2024-01-10T08:15:00;41.07;;;18.97;;
27802;SDS011;15182;48.174;11.562;2024-01-10T08:17:27;38.33;;;18.37;;
27802;SDS011;15182;48.174;11.562;2024-01-10T08:19:55;47.23;;;20.20;;
27802;SDS011;15182;48.174;11.562;2024-01-10T08:22:23;41.97;;;19.53;;
27802;SDS011;15182;48.174;11.562;2024-01-10T08:24:52;45.43;;;19.53;;
27802;SDS011;15182;48.174;11.562;2024-01-10T08:27:21;42.77;;;19.40;;
27802;SDS011;15182;48.174;11.562;2024-01-10T08:29:49;46.93;;;19.60;;
27802;SDS011;15182;48.174;11.562;2024-01-10T08:32:17;46.60;;;19.73;;
27802;SDS011;15182;48.174;11.562;2024-01-10T08:34:47;49.57;;;22.30;;
27802;SDS011;15182;48.174;11.562;2024-01-10T08:37:15;47.63;;;21.37;;
27802;SDS011;15182;48.174;11.562;2024-01-10T08:39:44;44.30;;;20.10;;
27802;SDS011;15182;48.174;11.562;2024-01-10T08:42:13;47.03;;;20.27;;
27802;SDS011;15182;48.174;11.562;2024-01-10T08:44:41;46.83;;;19.47;;
27802;SDS011;15182;48.174;11.562;2024-01-10T08:47:09;44.57;;;19.80;;
27802;SDS011;15182;48.174;11.562;2024-01-10T08:49:37;45.47;;;20.43;;
27802;SDS011;15182;48.174;11.562;2024-01-10T08:52:05;57.43;;;20.40;;
27802;SDS011;15182;48.174;11.562;2024-01-10T08:54:33;43.80;;;20.17;;
27802;SDS011;15182;48.174;11.562;2024-01-10T08:57:02;40.20;;;19.33;;
27802;SDS011;15182;48.174;11.562;2024-01-10T08:59:32;45.33;;;20.03;;
27802;SDS011;15182;48.174;11.562;2024-01-10T09:02:00;46.63;;;20.07;;
27802;SDS011;15182;48.174;11.562;2024-01-10T09:04:28;47.37;;;20.07;;
27802;SDS011;15182;48.174;11.562;2024-01-10T09:06:56;48.23;;;20.40;;
27802;SDS011;15182;48.174;11.562;2024-01-10T09:09:24;45.13;;;20.10;;
27802;SDS011;15182;48.174;11.562;2024-01-10T09:11:51;48.10;;;19.70;;
27802;SDS011;15182;48.174;11.562;2024-01-10T09:14:19;48.27;;;20.10;;
27802;SDS011;15182;48.174;11.562;2024-01-10T09:16:48;50.23;;;20.67;;
27802;SDS011;15182;48.174;11.562;2024-01-10T09:19:18;42.40;;;20.57;;
27802;SDS011;15182;48.174;11.562;2024-01-10T09:21:46;52.90;;;21.47;;
27802;SDS011;15182;48.174;11.562;2024-01-10T09:24:14;41.43;;;19.33;;
27802;SDS011;15182;48.174;11.562;2024-01-10T09:26:42;50.80;;;22.23;;
27802;SDS011;15182;48.174;11.562;2024-01-10T09:29:10;49.83;;;21.93;;
27802;SDS011;15182;48.174;11.562;2024-01-10T09:31:38;44.40;;;20.70;;
27802;SDS011;15182;48.174;11.562;2024-01-10T09:34:07;50.93;;;22.20;;
27802;SDS011;15182;48.174;11.562;2024-01-10T09:36:35;52.93;;;21.67;;
27802;SDS011;15182;48.174;11.562;2024-01-10T09:39:03;49.33;;;21.37;;
27802;SDS011;15182;48.174;11.562;2024-01-10T09:41:31;52.53;;;22.80;;
27802;SDS011;15182;48.174;11.562;2024-01-10T09:44:04;57.53;;;24.20;;
27802;SDS011;15182;48.174;11.562;2024-01-10T09:46:32;62.50;;;24.07;;
27802;SDS011;15182;48.174;11.562;2024-01-10T09:49:01;55.07;;;22.43;;
27802;SDS011;15182;48.174;11.562;2024-01-10T09:51:30;54.17;;;23.27;;
27802;SDS011;15182;48.174;11.562;2024-01-10T09:54:01;58.53;;;24.50;;
27802;SDS011;15182;48.174;11.562;2024-01-10T09:56:30;60.27;;;23.53;;
27802;SDS011;15182;48.174;11.562;2024-01-10T09:58:59;55.73;;;24.07;;
27802;SDS011;15182;48.174;11.562;2024-01-10T10:01:30;60.33;;;24.00;;
27802;SDS011;15182;48.174;11.562;2024-01-10T10:03:59;62.53;;;25.70;;
27802;SDS011;15182;48.174;11.562;2024-01-10T10:06:31;62.47;;;25.90;;
27802;SDS011;15182;48.174;11.562;2024-01-10T10:08:58;61.80;;;25.57;;
27802;SDS011;15182;48.174;11.562;2024-01-10T10:11:26;68.23;;;27.00;;
27802;SDS011;15182;48.174;11.562;2024-01-10T10:13:55;61.27;;;24.27;;
27802;SDS011;15182;48.174;11.562;2024-01-10T10:16:23;55.40;;;23.00;;
27802;SDS011;15182;48.174;11.562;2024-01-10T10:18:52;64.33;;;26.67;;
27802;SDS011;15182;48.174;11.562;2024-01-10T10:21:24;59.90;;;25.17;;
27802;SDS011;15182;48.174;11.562;2024-01-10T10:23:58;58.80;;;24.57;;
27802;SDS011;15182;48.174;11.562;2024-01-10T10:26:27;56.93;;;23.70;;
27802;SDS011;15182;48.174;11.562;2024-01-10T10:28:56;58.77;;;25.10;;
27802;SDS011;15182;48.174;11.562;2024-01-10T10:31:24;72.07;;;26.30;;
27802;SDS011;15182;48.174;11.562;2024-01-10T10:33:52;51.77;;;23.33;;
27802;SDS011;15182;48.174;11.562;2024-01-10T10:36:21;56.80;;;23.57;;
27802;SDS011;15182;48.174;11.562;2024-01-10T10:38:49;52.73;;;23.33;;
27802;SDS011;15182;48.174;11.562;2024-01-10T10:41:18;54.50;;;23.47;;
27802;SDS011;15182;48.174;11.562;2024-01-10T10:43:47;50.97;;;22.07;;
27802;SDS011;15182;48.174;11.562;2024-01-10T10:46:18;47.40;;;22.27;;
27802;SDS011;15182;48.174;11.562;2024-01-10T10:48:48;48.60;;;20.97;;
27802;SDS011;15182;48.174;11.562;2024-01-10T10:51:17;52.73;;;21.57;;
27802;SDS011;15182;48.174;11.562;2024-01-10T10:53:55;56.77;;;23.97;;
27802;SDS011;15182;48.174;11.562;2024-01-10T10:56:28;49.23;;;21.50;;
27802;SDS011;15182;48.174;11.562;2024-01-10T10:59:00;55.57;;;23.90;;
27802;SDS011;15182;48.174;11.562;2024-01-10T11:01:29;59.53;;;23.07;;
27802;SDS011;15182;48.174;11.562;2024-01-10T11:04:01;55.10;;;23.33;;
27802;SDS011;15182;48.174;11.562;2024-01-10T11:06:29;57.13;;;24.10;;
27802;SDS011;15182;48.174;11.562;2024-01-10T11:08:58;57.93;;;24.30;;
27802;SDS011;15182;48.174;11.562;2024-01-10T11:11:35;53.40;;;23.37;;
27802;SDS011;15182;48.174;11.562;2024-01-10T11:14:20;51.07;;;22.00;;
27802;SDS011;15182;48.174;11.562;2024-01-10T11:17:12;50.80;;;22.30;;
27802;SDS011;15182;48.174;11.562;2024-01-10T11:26:04;50.57;;;22.10;;
27802;SDS011;15182;48.174;11.562;2024-01-10T11:28:36;55.90;;;22.57;;
27802;SDS011;15182;48.174;11.562;2024-01-10T11:31:05;44.90;;;21.80;;
27802;SDS011;15182;48.174;11.562;2024-01-10T11:33:34;54.33;;;22.00;;
27802;SDS011;15182;48.174;11.562;2024-01-10T11:36:05;60.40;;;23.97;;
27802;SDS011;15182;48.174;11.562;2024-01-10T11:41:28;52.10;;;22.87;;
27802;SDS011;15182;48.174;11.562;2024-01-10T11:46:54;53.47;;;22.20;;
27802;SDS011;15182;48.174;11.562;2024-01-10T11:49:24;54.27;;;22.47;;
27802;SDS011;15182;48.174;11.562;2024-01-10T11:51:54;52.67;;;22.13;;
27802;SDS011;15182;48.174;11.562;2024-01-10T11:54:34;52.03;;;22.63;;
27802;SDS011;15182;48.174;11.562;2024-01-10T11:57:07;60.50;;;26.53;;
27802;SDS011;15182;48.174;11.562;2024-01-10T11:59:42;60.30;;;25.70;;
27802;SDS011;15182;48.174;11.562;2024-01-10T12:02:11;53.60;;;23.87;;
27802;SDS011;15182;48.174;11.562;2024-01-10T12:04:41;57.07;;;24.60;;
27802;SDS011;15182;48.174;11.562;2024-01-10T12:07:09;65.33;;;24.70;;
27802;SDS011;15182;48.174;11.562;2024-01-10T12:09:37;59.27;;;24.53;;
27802;SDS011;15182;48.174;11.562;2024-01-10T12:12:05;57.33;;;23.83;;
27802;SDS011;15182;48.174;11.562;2024-01-10T12:14:33;58.60;;;24.73;;
27802;SDS011;15182;48.174;11.562;2024-01-10T12:17:04;52.27;;;23.03;;
27802;SDS011;15182;48.174;11.562;2024-01-10T12:19:34;53.40;;;23.63;;
27802;SDS011;15182;48.174;11.562;2024-01-10T12:22:03;55.43;;;23.10;;
27802;SDS011;15182;48.174;11.562;2024-01-10T12:24:32;55.43;;;23.87;;
27802;SDS011;15182;48.174;11.562;2024-01-10T12:27:00;50.77;;;22.77;;
27802;SDS011;15182;48.174;11.562;2024-01-10T12:29:29;60.90;;;25.30;;
27802;SDS011;15182;48.174;11.562;2024-01-10T12:31:58;62.67;;;24.80;;
27802;SDS011;15182;48.174;11.562;2024-01-10T12:34:28;59.13;;;23.67;;
27802;SDS011;15182;48.174;11.562;2024-01-10T12:36:57;57.07;;;23.07;;
27802;SDS011;15182;48.174;11.562;2024-01-10T12:39:26;56.57;;;24.57;;
27802;SDS011;15182;48.174;11.562;2024-01-10T12:41:57;53.63;;;23.10;;
27802;SDS011;15182;48.174;11.562;2024-01-10T12:44:27;57.60;;;24.10;;
27802;SDS011;15182;48.174;11.562;2024-01-10T12:46:57;59.57;;;24.10;;
27802;SDS011;15182;48.174;11.562;2024-01-10T12:49:25;66.47;;;24.03;;
27802;SDS011;15182;48.174;11.562;2024-01-10T12:51:55;53.50;;;22.97;;
27802;SDS011;15182;48.174;11.562;2024-01-10T12:54:22;60.50;;;23.67;;
27802;SDS011;15182;48.174;11.562;2024-01-10T12:56:50;56.83;;;22.93;;
27802;SDS011;15182;48.174;11.562;2024-01-10T12:59:19;58.23;;;23.57;;
27802;SDS011;15182;48.174;11.562;2024-01-10T13:01:48;58.83;;;23.63;;
27802;SDS011;15182;48.174;11.562;2024-01-10T13:04:15;54.50;;;22.80;;
27802;SDS011;15182;48.174;11.562;2024-01-10T13:06:43;54.53;;;24.53;;
27802;SDS011;15182;48.174;11.562;2024-01-10T13:09:12;60.40;;;24.60;;
27802;SDS011;15182;48.174;11.562;2024-01-10T13:11:41;50.47;;;23.17;;
27802;SDS011;15182;48.174;11.562;2024-01-10T13:14:09;54.43;;;23.33;;
27802;SDS011;15182;48.174;11.562;2024-01-10T13:16:37;52.27;;;22.10;;
27802;SDS011;15182;48.174;11.562;2024-01-10T13:19:04;55.63;;;22.93;;
27802;SDS011;15182;48.174;11.562;2024-01-10T13:21:32;52.70;;;22.43;;
27802;SDS011;15182;48.174;11.562;2024-01-10T13:24:01;55.27;;;23.07;;
27802;SDS011;15182;48.174;11.562;2024-01-10T13:26:30;58.00;;;23.93;;
27802;SDS011;15182;48.174;11.562;2024-01-10T13:28:58;56.43;;;23.07;;
27802;SDS011;15182;48.174;11.562;2024-01-10T13:31:28;56.43;;;23.87;;
27802;SDS011;15182;48.174;11.562;2024-01-10T13:33:56;47.83;;;22.27;;
27802;SDS011;15182;48.174;11.562;2024-01-10T13:36:24;58.67;;;23.57;;
27802;SDS011;15182;48.174;11.562;2024-01-10T13:38:52;50.13;;;22.67;;
27802;SDS011;15182;48.174;11.562;2024-01-10T13:41:30;54.00;;;22.50;;
27802;SDS011;15182;48.174;11.562;2024-01-10T13:43:58;56.90;;;24.17;;
27802;SDS011;15182;48.174;11.562;2024-01-10T13:46:26;48.00;;;22.30;;
27802;SDS011;15182;48.174;11.562;2024-01-10T13:48:54;56.20;;;23.73;;
27802;SDS011;15182;48.174;11.562;2024-01-10T13:51:22;54.87;;;22.20;;
27802;SDS011;15182;48.174;11.562;2024-01-10T13:53:50;56.77;;;23.13;;
27802;SDS011;15182;48.174;11.562;2024-01-10T13:56:17;50.33;;;22.10;;
27802;SDS011;15182;48.174;11.562;2024-01-10T13:58:49;55.97;;;22.77;;
27802;SDS011;15182;48.174;11.562;2024-01-10T14:01:17;56.37;;;23.03;;
27802;SDS011;15182;48.174;11.562;2024-01-10T14:03:45;54.47;;;21.77;;
27802;SDS011;15182;48.174;11.562;2024-01-10T14:06:13;49.40;;;21.37;;
27802;SDS011;15182;48.174;11.562;2024-01-10T14:08:41;59.47;;;25.37;;
27802;SDS011;15182;48.174;11.562;2024-01-10T14:11:11;52.93;;;22.60;;
27802;SDS011;15182;48.174;11.562;2024-01-10T14:13:39;59.40;;;23.23;;
27802;SDS011;15182;48.174;11.562;2024-01-10T14:16:09;56.23;;;23.73;;
27802;SDS011;15182;48.174;11.562;2024-01-10T14:18:37;53.17;;;22.60;;
27802;SDS011;15182;48.174;11.562;2024-01-10T14:21:04;54.23;;;23.40;;
27802;SDS011;15182;48.174;11.562;2024-01-10T14:23:33;54.87;;;23.37;;
27802;SDS011;15182;48.174;11.562;2024-01-10T14:26:01;54.30;;;22.67;;
27802;SDS011;15182;48.174;11.562;2024-01-10T14:28:31;56.73;;;22.97;;
27802;SDS011;15182;48.174;11.562;2024-01-10T14:30:59;53.60;;;22.80;;